Time;durP1;ratioP1;P1;durP2;ratioP2;P2;SDS_P1;SDS_P2;PMS_P1;PMS_P2;Temp;Humidity;BMP_temperature;BMP_pressure;BME280_temperature;BME280_humidity;BME280_pressure;Samples;Min_cycle;Max_cycle;Signal;HPM_P1;HPM_P2
2023/01/01 00:00:38;;;;;;;742.07;530.17;;;;;;;;;;5093204;28;20443;-72
2023/01/01 00:03:06;;;;;;;674.27;479.00;;;;;;;;;;5093412;28;20796;-71
2023/01/01 00:05:34;;;;;;;572.37;427.17;;;;;;;;;;5093176;28;20453;-72
2023/01/01 00:08:01;;;;;;;465.93;333.57;;;;;;;;;;5092619;28;20470;-71
2023/01/01 00:10:27;;;;;;;409.93;279.70;;;;;;;;;;5093300;28;20599;-71
2023/01/01 00:12:54;;;;;;;415.83;285.77;;;;;;;;;;5093250;28;20816;-72
2023/01/01 00:15:21;;;;;;;379.97;252.63;;;;;;;;;;5093025;28;20458;-72
2023/01/01 00:17:48;;;;;;;434.57;305.60;;;;;;;;;;5093175;28;20474;-72
2023/01/01 00:20:17;;;;;;;535.37;384.17;;;;;;;;;;5093128;28;20957;-71
2023/01/01 00:22:44;;;;;;;456.30;330.50;;;;;;;;;;5093280;28;20459;-72
2023/01/01 00:25:13;;;;;;;480.70;330.17;;;;;;;;;;5092774;28;20455;-71
2023/01/01 00:27:40;;;;;;;446.83;309.00;;;;;;;;;;5092709;28;20490;-71
2023/01/01 00:30:08;;;;;;;449.10;302.17;;;;;;;;;;5092467;28;20515;-71
2023/01/01 00:32:35;;;;;;;484.10;328.37;;;;;;;;;;5092891;28;20439;-72
2023/01/01 00:35:02;;;;;;;451.30;310.60;;;;;;;;;;5093092;28;20458;-72
2023/01/01 00:37:30;;;;;;;456.90;326.93;;;;;;;;;;5093034;28;20577;-72
2023/01/01 00:39:58;;;;;;;438.77;310.10;;;;;;;;;;5096531;28;20443;-72
2023/01/01 00:42:25;;;;;;;445.40;304.70;;;;;;;;;;5096609;28;20816;-72
2023/01/01 00:44:52;;;;;;;415.57;287.93;;;;;;;;;;5096695;28;20450;-72
2023/01/01 00:47:19;;;;;;;401.43;261.93;;;;;;;;;;5096415;28;20443;-71
2023/01/01 00:49:46;;;;;;;383.37;252.43;;;;;;;;;;5096467;28;20474;-72
2023/01/01 00:52:13;;;;;;;326.70;206.90;;;;;;;;;;5096766;28;20450;-72
2023/01/01 00:54:41;;;;;;;317.40;194.50;;;;;;;;;;5096641;28;20451;-71
2023/01/01 00:57:09;;;;;;;320.07;201.33;;;;;;;;;;5096314;28;20458;-72
2023/01/01 00:59:36;;;;;;;338.33;219.17;;;;;;;;;;5095556;28;20463;-71
2023/01/01 01:02:03;;;;;;;363.73;230.63;;;;;;;;;;5096694;28;20445;-72
2023/01/01 01:04:30;;;;;;;363.27;231.00;;;;;;;;;;5096326;28;20446;-72
2023/01/01 01:06:57;;;;;;;353.73;219.20;;;;;;;;;;5096470;28;20948;-72
2023/01/01 01:09:24;;;;;;;352.03;212.10;;;;;;;;;;5096343;28;20470;-72
2023/01/01 01:11:53;;;;;;;340.23;212.40;;;;;;;;;;5096234;28;20458;-71
2023/01/01 01:14:20;;;;;;;228.67;139.57;;;;;;;;;;5096393;28;20431;-72
2023/01/01 01:16:47;;;;;;;276.73;163.83;;;;;;;;;;5096315;28;20450;-72
2023/01/01 01:19:17;;;;;;;258.63;148.80;;;;;;;;;;5095682;28;20585;-72
2023/01/01 01:21:46;;;;;;;250.80;143.47;;;;;;;;;;5096193;28;20936;-72
2023/01/01 01:24:13;;;;;;;205.20;117.43;;;;;;;;;;5095706;28;20462;-72
2023/01/01 01:26:40;;;;;;;234.47;132.57;;;;;;;;;;5096127;28;20815;-72
2023/01/01 01:29:09;;;;;;;233.57;129.17;;;;;;;;;;5096091;28;20494;-72
2023/01/01 01:31:37;;;;;;;227.30;134.97;;;;;;;;;;5095302;28;20471;-72
2023/01/01 01:34:04;;;;;;;287.77;173.73;;;;;;;;;;5095908;28;20435;-72
2023/01/01 01:36:31;;;;;;;323.27;189.20;;;;;;;;;;5095697;28;20443;-72
2023/01/01 01:38:58;;;;;;;306.60;178.20;;;;;;;;;;5095573;28;20487;-72
2023/01/01 01:41:26;;;;;;;311.20;188.67;;;;;;;;;;5095808;28;20446;-72
2023/01/01 01:43:55;;;;;;;318.33;185.10;;;;;;;;;;5095765;28;20481;-72
2023/01/01 01:46:26;;;;;;;285.37;174.40;;;;;;;;;;5095868;28;20455;-72
2023/01/01 01:48:54;;;;;;;267.07;147.90;;;;;;;;;;5095259;28;20462;-72
2023/01/01 01:51:24;;;;;;;186.30;103.87;;;;;;;;;;5095560;28;20849;-72
2023/01/01 01:53:53;;;;;;;165.67;95.77;;;;;;;;;;5095370;28;20435;-72
2023/01/01 01:56:22;;;;;;;146.90;76.27;;;;;;;;;;5095261;28;20451;-71
2023/01/01 01:58:49;;;;;;;127.83;68.80;;;;;;;;;;5095448;28;20478;-72
2023/01/01 02:01:16;;;;;;;126.00;70.67;;;;;;;;;;5095172;28;20455;-71
2023/01/01 02:03:48;;;;;;;130.03;73.83;;;;;;;;;;5095440;28;20966;-72
2023/01/01 02:06:16;;;;;;;161.20;91.67;;;;;;;;;;5095340;28;20435;-72
2023/01/01 02:08:43;;;;;;;140.33;82.97;;;;;;;;;;5095221;28;20482;-72
2023/01/01 02:11:10;;;;;;;145.83;72.80;;;;;;;;;;5095153;28;20489;-72
2023/01/01 02:13:37;;;;;;;114.07;64.70;;;;;;;;;;5094428;28;20475;-72
2023/01/01 02:16:09;;;;;;;93.63;56.93;;;;;;;;;;5095131;28;20447;-72
2023/01/01 02:18:39;;;;;;;95.00;56.10;;;;;;;;;;5094979;28;20493;-72
2023/01/01 02:21:11;;;;;;;145.37;81.40;;;;;;;;;;5095406;28;20435;-71
2023/01/01 02:23:51;;;;;;;228.43;129.87;;;;;;;;;;5094967;28;20435;-72
2023/01/01 02:26:38;;;;;;;293.60;165.33;;;;;;;;;;5094984;28;21014;-72
2023/01/01 02:29:08;;;;;;;285.90;164.40;;;;;;;;;;5094904;28;20466;-72
2023/01/01 02:31:38;;;;;;;253.53;152.90;;;;;;;;;;5094319;28;20475;-71
2023/01/01 02:34:06;;;;;;;283.30;152.17;;;;;;;;;;5094652;28;20845;-71
2023/01/01 02:36:34;;;;;;;225.63;136.93;;;;;;;;;;5094883;28;20819;-72
2023/01/01 02:39:03;;;;;;;236.00;139.53;;;;;;;;;;5094213;28;20510;-71
2023/01/01 02:41:31;;;;;;;264.23;146.57;;;;;;;;;;5094375;28;20451;-71
2023/01/01 02:43:58;;;;;;;245.03;140.77;;;;;;;;;;5094362;28;20516;-71
2023/01/01 02:46:31;;;;;;;255.67;140.77;;;;;;;;;;5094673;28;20459;-71
2023/01/01 02:48:58;;;;;;;258.63;139.37;;;;;;;;;;5094484;28;20844;-71
2023/01/01 02:51:30;;;;;;;229.60;136.10;;;;;;;;;;5094402;28;20490;-71
2023/01/01 02:54:02;;;;;;;221.70;122.53;;;;;;;;;;5094195;28;20446;-71
2023/01/01 02:56:34;;;;;;;237.03;129.90;;;;;;;;;;5094087;28;20453;-71
2023/01/01 03:01:56;;;;;;;209.17;116.60;;;;;;;;;;5093369;28;20907;-72
2023/01/01 03:04:25;;;;;;;227.37;114.47;;;;;;;;;;5094268;28;20807;-72
2023/01/01 03:06:55;;;;;;;208.70;114.57;;;;;;;;;;5094137;28;20447;-72
2023/01/01 03:09:26;;;;;;;197.23;108.60;;;;;;;;;;5094049;28;20990;-72
2023/01/01 03:11:57;;;;;;;190.70;99.77;;;;;;;;;;5094068;28;20497;-72
2023/01/01 03:14:28;;;;;;;184.73;103.97;;;;;;;;;;5094163;28;20798;-71
2023/01/01 03:16:59;;;;;;;205.93;113.90;;;;;;;;;;5093827;28;20440;-72
2023/01/01 03:19:28;;;;;;;180.87;93.53;;;;;;;;;;5093663;28;20489;-72
2023/01/01 03:21:58;;;;;;;174.80;90.57;;;;;;;;;;5094003;28;20451;-72
2023/01/01 03:24:27;;;;;;;155.43;85.27;;;;;;;;;;5094223;28;20825;-72
2023/01/01 03:26:56;;;;;;;142.33;73.97;;;;;;;;;;5093505;28;20454;-72
2023/01/01 03:29:24;;;;;;;145.70;77.87;;;;;;;;;;5093417;28;20462;-72
2023/01/01 03:31:54;;;;;;;145.37;80.40;;;;;;;;;;5093150;28;20532;-72
2023/01/01 03:34:24;;;;;;;132.60;78.47;;;;;;;;;;5093466;28;20439;-72
2023/01/01 03:36:52;;;;;;;134.10;77.70;;;;;;;;;;5093594;28;20458;-71
2023/01/01 03:39:20;;;;;;;149.30;86.80;;;;;;;;;;5093099;28;20485;-72
2023/01/01 03:41:50;;;;;;;153.10;81.07;;;;;;;;;;5093594;28;20977;-72
2023/01/01 03:44:20;;;;;;;181.93;94.27;;;;;;;;;;5093297;28;20457;-72
2023/01/01 03:46:47;;;;;;;153.13;87.47;;;;;;;;;;5093207;28;20450;-72
2023/01/01 03:49:14;;;;;;;163.13;88.30;;;;;;;;;;5093439;28;20975;-72
2023/01/01 03:51:55;;;;;;;148.20;78.37;;;;;;;;;;5093449;28;20490;-71
2023/01/01 03:54:29;;;;;;;145.90;80.03;;;;;;;;;;5093585;28;20427;-72
2023/01/01 03:56:58;;;;;;;157.90;88.20;;;;;;;;;;5093525;28;20446;-72
2023/01/01 03:59:30;;;;;;;171.23;89.97;;;;;;;;;;5093381;28;20478;-72
2023/01/01 04:01:58;;;;;;;147.10;84.50;;;;;;;;;;5093466;28;20501;-72
2023/01/01 04:04:25;;;;;;;159.70;90.37;;;;;;;;;;5093061;28;20451;-72
2023/01/01 04:06:54;;;;;;;160.67;83.70;;;;;;;;;;5093146;28;20473;-72
2023/01/01 04:09:23;;;;;;;153.23;83.70;;;;;;;;;;5092938;28;20475;-72
2023/01/01 04:12:03;;;;;;;145.80;82.17;;;;;;;;;;5093907;28;20819;-72
2023/01/01 04:14:32;;;;;;;160.73;84.67;;;;;;;;;;5097240;28;20426;-72
2023/01/01 04:16:59;;;;;;;160.63;81.63;;;;;;;;;;5097384;28;20457;-72
2023/01/01 04:19:26;;;;;;;150.47;82.10;;;;;;;;;;5097043;28;20481;-72
2023/01/01 04:21:55;;;;;;;149.20;77.80;;;;;;;;;;5097109;28;20450;-72
2023/01/01 04:24:22;;;;;;;147.93;74.87;;;;;;;;;;5097243;28;20829;-71
2023/01/01 04:26:50;;;;;;;135.17;67.77;;;;;;;;;;5097244;28;20884;-71
2023/01/01 04:29:17;;;;;;;140.20;70.97;;;;;;;;;;5097053;28;20858;-71
2023/01/01 04:31:44;;;;;;;140.87;70.10;;;;;;;;;;5096658;28;20832;-71
2023/01/01 04:34:11;;;;;;;134.10;72.47;;;;;;;;;;5097199;28;20441;-71
2023/01/01 04:36:38;;;;;;;125.50;71.50;;;;;;;;;;5096703;28;20524;-71
2023/01/01 04:39:06;;;;;;;137.50;74.40;;;;;;;;;;5096478;28;20509;-71
2023/01/01 04:41:34;;;;;;;136.23;68.50;;;;;;;;;;5096391;28;20454;-71
2023/01/01 04:44:02;;;;;;;144.63;73.40;;;;;;;;;;5096893;28;20447;-71
2023/01/01 04:46:29;;;;;;;138.80;72.77;;;;;;;;;;5096912;28;20455;-71
2023/01/01 04:48:56;;;;;;;125.63;72.20;;;;;;;;;;5096757;28;20470;-71
2023/01/01 04:51:23;;;;;;;135.80;69.97;;;;;;;;;;5096677;28;20482;-71
2023/01/01 04:53:50;;;;;;;127.70;67.47;;;;;;;;;;5096727;28;20448;-71
2023/01/01 04:56:20;;;;;;;132.67;66.40;;;;;;;;;;5096631;28;20450;-72
2023/01/01 04:58:48;;;;;;;111.27;56.53;;;;;;;;;;5096262;28;20481;-71
2023/01/01 05:01:16;;;;;;;115.60;61.40;;;;;;;;;;5096558;28;20809;-72
2023/01/01 05:03:43;;;;;;;123.93;66.93;;;;;;;;;;5096481;28;20446;-71
2023/01/01 05:06:11;;;;;;;135.40;73.83;;;;;;;;;;5096514;28;20476;-71
2023/01/01 05:08:39;;;;;;;139.73;71.30;;;;;;;;;;5096011;28;20469;-71
2023/01/01 05:11:07;;;;;;;134.37;71.43;;;;;;;;;;5096261;28;20482;-71
2023/01/01 05:13:36;;;;;;;131.80;66.20;;;;;;;;;;5096273;28;20862;-71
2023/01/01 05:16:03;;;;;;;123.83;63.30;;;;;;;;;;5096243;28;20826;-71
2023/01/01 05:18:30;;;;;;;126.47;63.70;;;;;;;;;;5095862;28;20473;-71
2023/01/01 05:21:00;;;;;;;119.73;63.50;;;;;;;;;;5096155;28;20482;-71
2023/01/01 05:23:27;;;;;;;133.93;62.70;;;;;;;;;;5094920;28;20482;-71
2023/01/01 05:25:54;;;;;;;129.13;64.47;;;;;;;;;;5096041;28;20454;-71
2023/01/01 05:28:22;;;;;;;126.20;67.93;;;;;;;;;;5095926;28;20507;-71
2023/01/01 05:30:50;;;;;;;115.83;64.03;;;;;;;;;;5095407;28;20947;-71
2023/01/01 05:33:17;;;;;;;113.43;61.07;;;;;;;;;;5095315;28;20430;-71
2023/01/01 05:35:45;;;;;;;122.47;63.97;;;;;;;;;;5095949;28;20458;-72
2023/01/01 05:38:12;;;;;;;102.80;55.07;;;;;;;;;;5095319;28;20479;-71
2023/01/01 05:40:39;;;;;;;106.47;56.07;;;;;;;;;;5095830;28;20820;-71
2023/01/01 05:43:06;;;;;;;112.97;55.43;;;;;;;;;;5095473;28;20487;-71
2023/01/01 05:45:34;;;;;;;114.33;55.70;;;;;;;;;;5095679;28;20454;-72
2023/01/01 05:48:03;;;;;;;123.07;63.37;;;;;;;;;;5095550;28;20475;-71
2023/01/01 05:50:30;;;;;;;118.17;58.90;;;;;;;;;;5095570;28;20939;-71
2023/01/01 05:52:57;;;;;;;102.70;52.63;;;;;;;;;;5095402;28;20478;-71
2023/01/01 05:55:24;;;;;;;112.90;57.30;;;;;;;;;;5095554;28;20446;-71
2023/01/01 05:57:51;;;;;;;88.43;48.93;;;;;;;;;;5095079;28;20478;-71
2023/01/01 06:00:19;;;;;;;95.73;54.13;;;;;;;;;;5095431;28;20435;-71
2023/01/01 06:02:46;;;;;;;103.20;51.97;;;;;;;;;;5095344;28;20942;-71
2023/01/01 06:05:14;;;;;;;85.03;48.20;;;;;;;;;;5095251;28;20954;-72
2023/01/01 06:07:41;;;;;;;97.27;52.83;;;;;;;;;;5095244;28;21016;-71
2023/01/01 06:10:09;;;;;;;99.70;47.93;;;;;;;;;;5095290;28;20795;-71
2023/01/01 06:12:36;;;;;;;101.00;46.53;;;;;;;;;;5094721;28;20482;-71
2023/01/01 06:15:03;;;;;;;79.57;42.73;;;;;;;;;;5095100;28;20958;-72
2023/01/01 06:17:30;;;;;;;81.00;42.60;;;;;;;;;;5094954;28;20450;-72
2023/01/01 06:19:57;;;;;;;85.97;45.57;;;;;;;;;;5095034;28;20450;-71
2023/01/01 06:22:25;;;;;;;79.50;41.37;;;;;;;;;;5094663;28;20450;-72
2023/01/01 06:24:52;;;;;;;72.83;41.40;;;;;;;;;;5094938;28;20958;-72
2023/01/01 06:27:19;;;;;;;82.63;42.80;;;;;;;;;;5094781;28;20544;-72
2023/01/01 06:29:47;;;;;;;84.43;45.20;;;;;;;;;;5094822;28;20435;-72
2023/01/01 06:32:14;;;;;;;82.63;45.10;;;;;;;;;;5094323;28;20475;-72
2023/01/01 06:34:41;;;;;;;87.87;42.63;;;;;;;;;;5094704;28;20430;-72
2023/01/01 06:37:08;;;;;;;71.17;35.93;;;;;;;;;;5094767;28;20450;-72
2023/01/01 06:39:36;;;;;;;62.87;32.73;;;;;;;;;;5094224;28;20479;-72
2023/01/01 06:42:03;;;;;;;51.73;28.10;;;;;;;;;;5094297;28;20450;-72
2023/01/01 06:44:31;;;;;;;51.10;29.00;;;;;;;;;;5094268;28;20455;-72
2023/01/01 06:46:58;;;;;;;43.50;26.17;;;;;;;;;;5094589;28;20458;-72
2023/01/01 06:49:25;;;;;;;45.73;26.07;;;;;;;;;;5094246;28;20467;-72
2023/01/01 06:51:52;;;;;;;43.00;21.37;;;;;;;;;;5094386;28;20482;-72
2023/01/01 06:54:19;;;;;;;39.33;23.70;;;;;;;;;;5094137;28;20446;-72
2023/01/01 06:56:48;;;;;;;39.60;22.50;;;;;;;;;;5094088;28;20453;-72
2023/01/01 06:59:16;;;;;;;45.27;24.17;;;;;;;;;;5095182;28;20809;-71
2023/01/01 07:01:43;;;;;;;42.43;25.97;;;;;;;;;;5094302;28;20456;-72
2023/01/01 07:04:12;;;;;;;49.87;26.17;;;;;;;;;;5094302;28;20453;-71
2023/01/01 07:06:39;;;;;;;46.33;29.43;;;;;;;;;;5094189;28;20462;-71
2023/01/01 07:09:07;;;;;;;44.50;25.80;;;;;;;;;;5094149;28;20815;-72
2023/01/01 07:11:34;;;;;;;54.77;31.23;;;;;;;;;;5094061;28;20482;-71
2023/01/01 07:14:03;;;;;;;62.37;33.30;;;;;;;;;;5093743;28;20450;-72
2023/01/01 07:16:30;;;;;;;64.80;37.33;;;;;;;;;;5093794;28;20431;-72
2023/01/01 07:18:57;;;;;;;81.27;42.37;;;;;;;;;;5093637;28;20479;-72
2023/01/01 07:21:26;;;;;;;62.87;33.87;;;;;;;;;;5093578;28;20446;-72
2023/01/01 07:23:55;;;;;;;46.60;28.23;;;;;;;;;;5093606;28;20459;-71
2023/01/01 07:26:22;;;;;;;42.10;24.60;;;;;;;;;;5093879;28;20500;-71
2023/01/01 07:28:49;;;;;;;39.37;24.93;;;;;;;;;;5093741;28;20474;-71
2023/01/01 07:31:17;;;;;;;36.27;22.80;;;;;;;;;;5093430;28;20447;-71
2023/01/01 07:33:44;;;;;;;29.77;19.30;;;;;;;;;;5093794;28;20454;-71
2023/01/01 07:36:12;;;;;;;36.63;21.53;;;;;;;;;;5093653;28;20451;-71
2023/01/01 07:38:39;;;;;;;39.43;22.80;;;;;;;;;;5093358;28;20482;-71
2023/01/01 07:41:06;;;;;;;53.40;30.53;;;;;;;;;;5093638;28;20811;-71
2023/01/01 07:43:33;;;;;;;34.90;19.33;;;;;;;;;;5093709;28;20458;-71
2023/01/01 07:46:00;;;;;;;37.60;23.00;;;;;;;;;;5093678;28;20458;-71
2023/01/01 07:48:29;;;;;;;33.03;20.70;;;;;;;;;;5092600;28;20485;-71
2023/01/01 07:50:56;;;;;;;56.93;36.27;;;;;;;;;;5092973;28;20471;-72
2023/01/01 07:53:23;;;;;;;71.50;38.90;;;;;;;;;;5093363;28;20478;-72
2023/01/01 07:55:50;;;;;;;78.53;41.27;;;;;;;;;;5093248;28;20423;-72
2023/01/01 07:58:17;;;;;;;66.47;38.80;;;;;;;;;;5093409;28;20557;-72
2023/01/01 08:00:47;;;;;;;89.27;51.60;;;;;;;;;;5093443;28;20446;-72
2023/01/01 08:03:14;;;;;;;44.37;28.33;;;;;;;;;;5093491;28;20470;-72
2023/01/01 08:05:42;;;;;;;43.73;22.90;;;;;;;;;;5093435;28;20846;-72
2023/01/01 08:08:10;;;;;;;52.10;23.87;;;;;;;;;;5092600;28;20470;-72
2023/01/01 08:10:37;;;;;;;71.37;39.00;;;;;;;;;;5093444;28;20431;-72
2023/01/01 08:13:05;;;;;;;66.13;41.23;;;;;;;;;;5091659;28;20486;-71
2023/01/01 08:15:33;;;;;;;70.50;38.30;;;;;;;;;;5091264;28;20439;-71
2023/01/01 08:18:00;;;;;;;57.23;35.93;;;;;;;;;;5091770;28;20997;-72
2023/01/01 08:20:29;;;;;;;53.53;32.57;;;;;;;;;;5091867;28;20438;-71
2023/01/01 08:22:57;;;;;;;48.33;30.60;;;;;;;;;;5091898;28;20450;-72
2023/01/01 08:25:24;;;;;;;34.97;25.50;;;;;;;;;;5091958;28;20451;-72
2023/01/01 08:27:51;;;;;;;34.17;23.40;;;;;;;;;;5091807;28;20858;-72
2023/01/01 08:30:18;;;;;;;36.13;24.83;;;;;;;;;;5091901;28;20447;-72
2023/01/01 08:32:45;;;;;;;36.00;23.33;;;;;;;;;;5091589;28;21000;-72
2023/01/01 08:35:13;;;;;;;35.00;22.90;;;;;;;;;;5091915;28;20801;-72
2023/01/01 08:37:40;;;;;;;32.60;21.80;;;;;;;;;;5091381;28;20499;-72
2023/01/01 08:40:10;;;;;;;30.97;21.50;;;;;;;;;;5091602;28;20439;-72
2023/01/01 08:42:37;;;;;;;50.30;32.77;;;;;;;;;;5091801;28;20435;-72
2023/01/01 08:45:05;;;;;;;34.17;23.80;;;;;;;;;;5091485;28;20458;-72
2023/01/01 08:47:32;;;;;;;26.03;19.93;;;;;;;;;;5091374;28;20450;-72
2023/01/01 08:49:59;;;;;;;29.53;18.63;;;;;;;;;;5090881;28;20459;-72
2023/01/01 08:52:26;;;;;;;22.63;17.43;;;;;;;;;;5091222;28;20493;-72
2023/01/01 08:54:53;;;;;;;23.43;16.77;;;;;;;;;;5091406;28;20462;-72
2023/01/01 08:57:22;;;;;;;20.60;14.50;;;;;;;;;;5091943;28;20822;-72
2023/01/01 08:59:49;;;;;;;20.63;15.57;;;;;;;;;;5094558;28;20797;-72
2023/01/01 09:02:16;;;;;;;26.10;16.90;;;;;;;;;;5096099;28;20437;-72
2023/01/01 09:04:43;;;;;;;22.93;17.23;;;;;;;;;;5096611;28;20955;-72
2023/01/01 09:07:10;;;;;;;19.67;14.97;;;;;;;;;;5096401;28;20947;-72
2023/01/01 09:09:37;;;;;;;23.70;17.90;;;;;;;;;;5096113;28;20470;-72
2023/01/01 09:12:08;;;;;;;20.17;16.03;;;;;;;;;;5095984;28;20482;-72
2023/01/01 09:14:36;;;;;;;23.37;20.03;;;;;;;;;;5096409;28;21043;-72
2023/01/01 09:17:03;;;;;;;21.07;18.10;;;;;;;;;;5096038;28;20450;-73
2023/01/01 09:19:30;;;;;;;23.67;20.00;;;;;;;;;;5095989;28;20489;-73
2023/01/01 09:21:57;;;;;;;17.37;14.30;;;;;;;;;;5096295;28;20462;-73
2023/01/01 09:24:25;;;;;;;23.03;17.87;;;;;;;;;;5096605;28;20447;-73
2023/01/01 09:26:52;;;;;;;22.33;16.23;;;;;;;;;;5096196;28;20943;-73
2023/01/01 09:29:19;;;;;;;19.00;14.63;;;;;;;;;;5095915;28;20473;-73
2023/01/01 09:31:48;;;;;;;21.93;17.77;;;;;;;;;;5095457;28;20437;-73
2023/01/01 09:34:15;;;;;;;39.67;17.17;;;;;;;;;;5095989;28;21024;-73
2023/01/01 09:36:42;;;;;;;17.70;14.00;;;;;;;;;;5095978;28;21004;-73
2023/01/01 09:39:11;;;;;;;16.07;11.00;;;;;;;;;;5095502;28;21017;-73
2023/01/01 09:41:45;;;;;;;16.83;12.40;;;;;;;;;;5095369;28;20494;-73
2023/01/01 09:44:17;;;;;;;9.73;8.70;;;;;;;;;;5094261;28;20427;-73
2023/01/01 09:46:45;;;;;;;11.63;8.63;;;;;;;;;;5094642;28;20431;-73
2023/01/01 09:49:16;;;;;;;10.70;8.20;;;;;;;;;;5094475;28;20482;-74
2023/01/01 09:51:43;;;;;;;9.80;7.27;;;;;;;;;;5094178;28;20828;-74
2023/01/01 09:54:14;;;;;;;11.90;6.83;;;;;;;;;;5094331;28;20497;-74
2023/01/01 09:56:41;;;;;;;14.90;8.53;;;;;;;;;;5094191;28;20896;-74
2023/01/01 09:59:09;;;;;;;10.20;7.43;;;;;;;;;;5094236;28;20868;-74
2023/01/01 10:01:39;;;;;;;9.13;6.80;;;;;;;;;;5094273;28;20454;-74
2023/01/01 10:04:19;;;;;;;9.23;7.80;;;;;;;;;;5094259;28;20438;-74
2023/01/01 10:06:50;;;;;;;9.00;7.30;;;;;;;;;;5094061;28;20434;-74
2023/01/01 10:09:23;;;;;;;9.90;8.57;;;;;;;;;;5093807;28;20478;-74
2023/01/01 10:11:55;;;;;;;10.53;8.43;;;;;;;;;;5093946;28;20446;-74
2023/01/01 10:14:24;;;;;;;11.50;8.87;;;;;;;;;;5093772;28;21001;-74
2023/01/01 10:16:53;;;;;;;10.60;8.67;;;;;;;;;;5093537;28;20447;-73
2023/01/01 10:19:25;;;;;;;8.80;7.90;;;;;;;;;;5093459;28;20466;-74
2023/01/01 10:21:54;;;;;;;12.70;9.87;;;;;;;;;;5093660;28;20439;-74
2023/01/01 10:24:42;;;;;;;15.33;9.90;;;;;;;;;;5093908;28;20442;-74
2023/01/01 10:27:11;;;;;;;17.17;12.40;;;;;;;;;;5088486;28;20462;-74
2023/01/01 10:29:41;;;;;;;13.40;10.80;;;;;;;;;;5093618;28;20473;-74
2023/01/01 10:32:17;;;;;;;12.27;10.97;;;;;;;;;;5093515;28;20463;-74
2023/01/01 10:34:44;;;;;;;12.83;11.03;;;;;;;;;;5093650;28;20490;-74
2023/01/01 10:37:14;;;;;;;16.17;13.30;;;;;;;;;;5093541;28;20439;-73
2023/01/01 10:39:42;;;;;;;10.70;9.30;;;;;;;;;;5093251;28;20492;-74
2023/01/01 10:42:11;;;;;;;11.30;9.90;;;;;;;;;;5093519;28;20454;-74
2023/01/01 10:44:38;;;;;;;10.77;8.30;;;;;;;;;;5093328;28;20474;-74
2023/01/01 10:47:19;;;;;;;9.93;7.20;;;;;;;;;;5093338;28;20443;-74
2023/01/01 10:49:54;;;;;;;11.27;6.97;;;;;;;;;;5092973;28;20430;-74
2023/01/01 10:52:25;;;;;;;6.33;5.73;;;;;;;;;;5093280;28;20854;-74
2023/01/01 10:54:52;;;;;;;7.00;5.90;;;;;;;;;;5094051;28;20891;-74
2023/01/01 10:57:21;;;;;;;7.43;5.00;;;;;;;;;;5093390;28;20981;-73
2023/01/01 10:59:48;;;;;;;6.80;5.03;;;;;;;;;;5094270;28;21000;-74
2023/01/01 11:02:17;;;;;;;7.17;5.97;;;;;;;;;;5094214;28;20807;-74
2023/01/01 11:04:44;;;;;;;6.20;5.60;;;;;;;;;;5093931;28;20443;-74
2023/01/01 11:07:17;;;;;;;5.40;4.87;;;;;;;;;;5094178;28;20825;-74
2023/01/01 11:09:48;;;;;;;8.80;6.30;;;;;;;;;;5094177;28;20435;-74
2023/01/01 11:12:18;;;;;;;5.50;5.00;;;;;;;;;;5091915;28;20435;-74
2023/01/01 11:14:49;;;;;;;7.10;5.70;;;;;;;;;;5092512;28;20475;-74
2023/01/01 11:17:21;;;;;;;5.90;5.00;;;;;;;;;;5092738;28;20431;-74
2023/01/01 11:19:49;;;;;;;6.00;5.40;;;;;;;;;;5093242;28;20442;-74
2023/01/01 11:22:34;;;;;;;8.77;7.70;;;;;;;;;;5093187;28;20451;-74
2023/01/01 11:25:04;;;;;;;10.27;8.27;;;;;;;;;;5092019;28;20435;-74
2023/01/01 11:27:31;;;;;;;9.50;8.57;;;;;;;;;;5092285;28;20442;-74
2023/01/01 11:30:19;;;;;;;10.37;8.67;;;;;;;;;;5092727;28;20814;-74
2023/01/01 11:32:46;;;;;;;8.90;7.40;;;;;;;;;;5093182;28;20427;-74
2023/01/01 11:35:18;;;;;;;7.70;6.80;;;;;;;;;;5093768;28;20435;-74
2023/01/01 11:37:46;;;;;;;7.73;5.80;;;;;;;;;;5093382;28;20879;-74
2023/01/01 11:40:18;;;;;;;7.10;6.40;;;;;;;;;;5093679;28;20488;-74
2023/01/01 11:42:47;;;;;;;5.50;5.00;;;;;;;;;;5093613;28;20514;-74
2023/01/01 11:45:19;;;;;;;11.07;8.87;;;;;;;;;;5093595;28;20839;-74
2023/01/01 11:47:46;;;;;;;6.43;4.83;;;;;;;;;;5093612;28;20479;-74
2023/01/01 11:50:20;;;;;;;5.87;5.37;;;;;;;;;;5093590;28;20823;-74
2023/01/01 11:52:48;;;;;;;6.00;4.50;;;;;;;;;;5093545;28;20843;-74
2023/01/01 11:55:22;;;;;;;6.77;4.80;;;;;;;;;;5093495;28;20469;-74
2023/01/01 11:57:54;;;;;;;6.00;4.80;;;;;;;;;;5093551;28;20470;-74
2023/01/01 12:00:21;;;;;;;4.60;3.93;;;;;;;;;;5093208;28;20446;-74
2023/01/01 12:02:51;;;;;;;5.10;4.43;;;;;;;;;;5093439;28;20465;-74
2023/01/01 12:05:21;;;;;;;7.20;5.80;;;;;;;;;;5093500;28;20426;-74
2023/01/01 12:07:49;;;;;;;7.13;4.80;;;;;;;;;;5093387;28;20959;-74
2023/01/01 12:10:19;;;;;;;7.60;4.90;;;;;;;;;;5093469;28;20443;-74
2023/01/01 12:12:51;;;;;;;4.70;4.20;;;;;;;;;;5093344;28;20480;-74
2023/01/01 12:15:21;;;;;;;5.33;4.40;;;;;;;;;;5093472;28;20896;-74
2023/01/01 12:17:49;;;;;;;4.50;4.10;;;;;;;;;;5093251;28;20470;-74
2023/01/01 12:20:20;;;;;;;4.43;3.40;;;;;;;;;;5093245;28;20966;-74
2023/01/01 12:22:48;;;;;;;4.40;4.00;;;;;;;;;;5093021;28;20471;-74
2023/01/01 12:25:16;;;;;;;4.87;4.40;;;;;;;;;;5093265;28;20797;-74
2023/01/01 12:27:53;;;;;;;5.17;4.37;;;;;;;;;;5093132;28;20855;-74
2023/01/01 12:30:21;;;;;;;6.00;4.10;;;;;;;;;;5093292;28;20438;-74
2023/01/01 12:33:08;;;;;;;6.90;4.90;;;;;;;;;;5093439;28;20430;-73
2023/01/01 12:35:43;;;;;;;4.20;3.57;;;;;;;;;;5096899;28;20430;-74
2023/01/01 12:38:15;;;;;;;5.67;4.17;;;;;;;;;;5096930;28;20489;-74
2023/01/01 12:40:46;;;;;;;8.13;4.97;;;;;;;;;;5096758;28;20505;-74
2023/01/01 12:43:18;;;;;;;4.90;3.90;;;;;;;;;;5096955;28;20466;-74
2023/01/01 12:46:09;;;;;;;3.80;3.40;;;;;;;;;;5096997;28;20828;-74
2023/01/01 12:48:47;;;;;;;5.20;4.17;;;;;;;;;;5096546;28;20470;-74
2023/01/01 12:51:18;;;;;;;5.23;4.37;;;;;;;;;;5096957;28;20450;-74
2023/01/01 12:53:50;;;;;;;5.00;3.80;;;;;;;;;;5096415;28;20473;-73
2023/01/01 12:56:21;;;;;;;6.53;4.47;;;;;;;;;;5096781;28;20867;-74
2023/01/01 12:58:52;;;;;;;11.93;4.50;;;;;;;;;;5096639;28;20474;-74
2023/01/01 13:01:21;;;;;;;6.27;4.43;;;;;;;;;;5096396;28;20434;-74
2023/01/01 13:03:50;;;;;;;8.90;5.77;;;;;;;;;;5096403;28;20837;-74
2023/01/01 13:06:19;;;;;;;4.80;4.03;;;;;;;;;;5096455;28;20477;-74
2023/01/01 13:08:51;;;;;;;3.80;3.50;;;;;;;;;;5096130;28;20470;-74
2023/01/01 13:11:19;;;;;;;7.30;4.30;;;;;;;;;;5096444;28;20790;-74
2023/01/01 13:13:46;;;;;;;6.27;4.20;;;;;;;;;;5096304;28;20514;-73
2023/01/01 13:16:32;;;;;;;8.27;4.53;;;;;;;;;;5096312;28;20451;-74
2023/01/01 13:18:59;;;;;;;4.80;3.90;;;;;;;;;;5096185;28;20480;-74
2023/01/01 13:21:28;;;;;;;5.60;4.30;;;;;;;;;;5096213;28;20455;-74
2023/01/01 13:23:58;;;;;;;7.13;4.40;;;;;;;;;;5096235;28;20552;-74
2023/01/01 13:26:38;;;;;;;5.73;4.23;;;;;;;;;;5095880;28;20454;-74
2023/01/01 13:29:24;;;;;;;5.20;4.40;;;;;;;;;;5096014;28;20470;-74
2023/01/01 13:32:09;;;;;;;5.00;4.53;;;;;;;;;;5096096;28;20431;-74
2023/01/01 13:34:51;;;;;;;5.17;4.13;;;;;;;;;;5095967;28;20478;-74
2023/01/01 13:37:28;;;;;;;12.20;6.40;;;;;;;;;;5083017;28;20837;-74
2023/01/01 13:39:55;;;;;;;4.87;4.10;;;;;;;;;;5095588;28;20454;-74
2023/01/01 13:42:38;;;;;;;5.53;4.23;;;;;;;;;;5095773;28;20946;-74
2023/01/01 13:45:12;;;;;;;5.80;4.23;;;;;;;;;;5094803;28;20449;-74
2023/01/01 13:47:45;;;;;;;6.03;4.40;;;;;;;;;;5095667;28;20467;-73
2023/01/01 13:50:14;;;;;;;5.50;4.43;;;;;;;;;;5095694;28;20439;-74
2023/01/01 13:52:53;;;;;;;4.73;3.80;;;;;;;;;;5095649;28;20447;-74
2023/01/01 13:55:35;;;;;;;9.80;4.20;;;;;;;;;;5095529;28;20467;-74
2023/01/01 13:58:18;;;;;;;6.20;4.50;;;;;;;;;;5095506;28;20501;-74
2023/01/01 14:00:55;;;;;;;5.20;4.10;;;;;;;;;;5095227;28;20430;-74
2023/01/01 14:03:25;;;;;;;5.77;4.10;;;;;;;;;;5095547;28;20435;-74
2023/01/01 14:05:56;;;;;;;6.13;4.80;;;;;;;;;;5095458;28;20442;-74
2023/01/01 14:08:30;;;;;;;11.43;6.13;;;;;;;;;;5095035;28;20477;-73
2023/01/01 14:10:59;;;;;;;7.97;6.77;;;;;;;;;;5095243;28;20783;-74
2023/01/01 14:13:28;;;;;;;7.40;6.57;;;;;;;;;;5095168;28;20991;-74
2023/01/01 14:15:57;;;;;;;13.07;7.40;;;;;;;;;;5095218;28;20458;-74
2023/01/01 14:18:29;;;;;;;8.83;7.73;;;;;;;;;;5094753;28;20470;-74
2023/01/01 14:20:57;;;;;;;18.33;10.80;;;;;;;;;;5095092;28;20442;-73
2023/01/01 14:23:32;;;;;;;9.80;7.13;;;;;;;;;;5094860;28;20474;-73
2023/01/01 14:25:59;;;;;;;10.60;8.77;;;;;;;;;;5093599;28;20442;-73
2023/01/01 14:28:27;;;;;;;11.50;10.30;;;;;;;;;;5093700;28;20466;-73
2023/01/01 14:30:55;;;;;;;10.93;9.57;;;;;;;;;;5093748;28;20462;-73